createdAt,value
2023-05-03T00:02:26.038Z,1.80
2023-05-03T00:04:54.748Z,1.70
2023-05-03T00:07:23.181Z,1.10
2023-05-03T00:09:50.501Z,1.40
2023-05-03T00:12:17.878Z,1.20
2023-05-03T00:14:46.167Z,1.30
2023-05-03T00:17:13.531Z,1.30
2023-05-03T00:19:40.844Z,1.10
2023-05-03T00:22:09.092Z,1.20
2023-05-03T00:24:36.294Z,1.30
2023-05-03T00:27:04.635Z,1.40
2023-05-03T00:29:31.738Z,1.30
2023-05-03T00:32:00.350Z,0.90
2023-05-03T00:34:27.887Z,1.10
2023-05-03T00:36:54.948Z,1.40
2023-05-03T00:39:22.264Z,1.30
2023-05-03T00:41:49.502Z,1.00
2023-05-03T00:44:16.618Z,1.20
2023-05-03T00:46:44.337Z,1.20
2023-05-03T00:49:11.666Z,1.00
2023-05-03T00:51:39.694Z,1.10
2023-05-03T00:54:06.992Z,1.30
2023-05-03T00:56:47.820Z,1.00
2023-05-03T00:59:15.407Z,1.10
2023-05-03T01:04:10.581Z,1.10
2023-05-03T01:07:04.277Z,1.30
2023-05-03T01:09:37.832Z,1.00
2023-05-03T01:12:25.364Z,1.40
2023-05-03T01:14:58.630Z,0.90
2023-05-03T01:17:28.822Z,0.90
2023-05-03T01:19:58.232Z,1.20
2023-05-03T01:22:38.674Z,1.10
2023-05-03T01:25:09.615Z,1.20
2023-05-03T01:27:37.149Z,1.00
2023-05-03T01:30:06.145Z,1.20
2023-05-03T01:32:46.146Z,1.10
2023-05-03T01:35:20.440Z,1.30
2023-05-03T01:37:48.393Z,1.00
2023-05-03T01:42:44.477Z,1.20
2023-05-03T01:45:11.816Z,1.40
2023-05-03T01:47:39.200Z,0.90
2023-05-03T01:50:06.511Z,0.90
2023-05-03T01:52:33.687Z,0.80
2023-05-03T01:55:01.047Z,1.20
2023-05-03T01:57:28.228Z,0.80
2023-05-03T01:59:55.679Z,0.80
2023-05-03T02:02:22.823Z,1.10
2023-05-03T02:04:50.237Z,1.20
2023-05-03T02:07:17.675Z,1.00
2023-05-03T02:09:46.186Z,1.10
2023-05-03T02:12:13.364Z,1.00
2023-05-03T02:14:41.284Z,1.20
2023-05-03T02:17:10.574Z,1.00
2023-05-03T02:19:38.278Z,1.10
2023-05-03T02:22:07.471Z,1.10
2023-05-03T02:24:36.429Z,1.10
2023-05-03T02:27:07.254Z,1.10
2023-05-03T02:29:34.457Z,1.10
2023-05-03T02:32:02.057Z,1.20
2023-05-03T02:34:29.885Z,1.10
2023-05-03T02:39:23.935Z,1.00
2023-05-03T02:41:51.143Z,1.30
2023-05-03T02:44:18.346Z,1.20
2023-05-03T02:49:30.302Z,1.20
2023-05-03T02:51:57.782Z,1.60
2023-05-03T02:54:24.779Z,1.40
2023-05-03T02:56:51.828Z,1.50
2023-05-03T02:59:18.910Z,1.70
2023-05-03T03:01:46.617Z,1.20
2023-05-03T03:04:15.304Z,1.30
2023-05-03T03:06:42.496Z,1.10
2023-05-03T03:09:09.521Z,1.20
2023-05-03T03:11:36.505Z,1.10
2023-05-03T03:14:03.500Z,1.30
2023-05-03T03:16:31.144Z,1.40
2023-05-03T03:18:58.164Z,1.20
2023-05-03T03:21:28.593Z,1.30
2023-05-03T03:23:56.064Z,1.60
2023-05-03T03:26:23.182Z,1.60
2023-05-03T03:28:50.817Z,1.60
2023-05-03T03:31:18.542Z,1.70
2023-05-03T03:33:45.845Z,1.60
2023-05-03T03:36:14.760Z,1.30
2023-05-03T03:38:42.243Z,1.60
2023-05-03T03:41:09.501Z,1.60
2023-05-03T03:43:37.092Z,1.60
2023-05-03T03:46:05.128Z,1.40
2023-05-03T03:48:33.464Z,1.30
2023-05-03T03:51:00.386Z,1.40
2023-05-03T03:53:31.786Z,1.20
2023-05-03T03:55:59.889Z,1.40
2023-05-03T03:58:26.941Z,1.20
2023-05-03T04:05:50.640Z,0.80
2023-05-03T04:10:45.793Z,1.10
2023-05-03T04:15:40.329Z,1.10
2023-05-03T04:18:08.287Z,1.20
2023-05-03T04:20:37.247Z,1.20
2023-05-03T04:23:04.862Z,1.30
2023-05-03T04:25:33.065Z,1.30
2023-05-03T04:28:08.204Z,1.70
2023-05-03T04:30:35.969Z,1.70
2023-05-03T04:33:03.987Z,2.10
2023-05-03T04:35:33.676Z,2.30
2023-05-03T04:38:03.703Z,2.10
2023-05-03T04:40:31.413Z,2.30
2023-05-03T04:43:05.115Z,2.00
2023-05-03T04:45:34.706Z,2.40
2023-05-03T04:48:04.807Z,1.80
2023-05-03T04:50:32.973Z,2.00
2023-05-03T04:53:00.177Z,1.40
2023-05-03T04:55:27.664Z,1.70
2023-05-03T04:57:55.275Z,1.90
2023-05-03T05:00:23.097Z,1.30
2023-05-03T05:02:54.771Z,1.30
2023-05-03T05:05:21.854Z,1.00
2023-05-03T05:07:48.722Z,1.00
2023-05-03T05:12:44.048Z,1.30
2023-05-03T05:15:11.328Z,1.00
2023-05-03T05:17:39.378Z,1.30
2023-05-03T05:20:12.006Z,0.90
2023-05-03T05:22:40.339Z,1.00
2023-05-03T05:25:07.649Z,0.90
2023-05-03T05:27:35.853Z,1.30
2023-05-03T05:30:04.184Z,1.20
2023-05-03T05:32:32.950Z,1.10
2023-05-03T05:35:00.642Z,1.60
2023-05-03T05:37:28.064Z,1.30
2023-05-03T05:39:57.555Z,1.50
2023-05-03T05:42:26.614Z,1.10
2023-05-03T05:44:53.951Z,1.20
2023-05-03T05:47:21.924Z,0.80
2023-05-03T05:49:50.140Z,1.00
2023-05-03T05:52:17.247Z,1.10
2023-05-03T05:54:44.219Z,1.00
2023-05-03T05:57:12.449Z,1.00
2023-05-03T05:59:40.266Z,1.10
2023-05-03T06:04:37.830Z,1.00
2023-05-03T06:07:04.790Z,0.80
2023-05-03T06:09:31.828Z,1.10
2023-05-03T06:12:03.075Z,0.80
2023-05-03T06:14:31.941Z,1.00
2023-05-03T06:17:00.119Z,1.30
2023-05-03T06:21:54.089Z,0.50
2023-05-03T06:24:21.686Z,0.80
2023-05-03T06:26:52.790Z,0.70
2023-05-03T06:29:20.336Z,0.80
2023-05-03T06:31:47.483Z,0.70
2023-05-03T06:34:19.882Z,0.80
2023-05-03T06:36:48.545Z,0.90
2023-05-03T06:39:16.239Z,0.90
2023-05-03T06:41:44.138Z,1.00
2023-05-03T06:44:10.950Z,1.00
2023-05-03T06:46:38.704Z,0.70
2023-05-03T06:54:06.533Z,0.80
2023-05-03T06:56:33.804Z,0.80
2023-05-03T06:59:00.938Z,0.70
2023-05-03T07:01:27.794Z,0.60
2023-05-03T07:03:55.451Z,0.90
2023-05-03T07:06:23.762Z,0.80
2023-05-03T07:08:51.941Z,0.90
2023-05-03T07:11:23.264Z,0.90
2023-05-03T07:13:51.113Z,0.80
2023-05-03T07:16:21.393Z,0.80
2023-05-03T07:18:48.679Z,0.80
2023-05-03T07:21:15.587Z,0.80
2023-05-03T07:23:43.845Z,0.90
2023-05-03T07:26:11.100Z,0.60
2023-05-03T07:28:38.095Z,0.60
2023-05-03T07:31:05.248Z,0.70
2023-05-03T07:33:36.960Z,0.50
2023-05-03T07:36:04.980Z,0.90
2023-05-03T07:38:33.445Z,1.00
2023-05-03T07:41:00.854Z,0.90
2023-05-03T07:43:28.789Z,0.90
2023-05-03T07:45:55.654Z,0.90
2023-05-03T07:48:23.149Z,0.80
2023-05-03T07:50:50.072Z,0.70
2023-05-03T07:53:17.091Z,1.00
2023-05-03T07:55:44.223Z,1.10
2023-05-03T07:58:11.239Z,1.00
2023-05-03T08:00:38.416Z,1.20
2023-05-03T08:03:06.125Z,0.80
2023-05-03T08:05:35.988Z,0.90
2023-05-03T08:08:06.562Z,1.00
2023-05-03T08:10:37.344Z,0.90
2023-05-03T08:13:05.774Z,1.20
2023-05-03T08:15:33.286Z,1.10
2023-05-03T08:18:00.597Z,1.30
2023-05-03T08:20:27.586Z,1.50
2023-05-03T08:22:58.825Z,0.90
2023-05-03T08:25:27.823Z,1.00
2023-05-03T08:27:55.077Z,1.40
2023-05-03T08:30:22.556Z,1.20
2023-05-03T08:32:49.740Z,1.10
2023-05-03T08:35:16.780Z,1.10
2023-05-03T08:37:44.805Z,1.00
2023-05-03T08:40:13.470Z,0.80
2023-05-03T08:42:44.315Z,1.10
2023-05-03T08:45:13.720Z,1.10
2023-05-03T08:47:41.222Z,1.10
2023-05-03T08:50:09.601Z,0.90
2023-05-03T08:52:39.606Z,1.30
2023-05-03T08:55:07.151Z,1.20
2023-05-03T09:00:05.732Z,1.50
2023-05-03T09:02:34.412Z,1.30
2023-05-03T09:05:01.501Z,1.20
2023-05-03T09:07:29.057Z,0.90
2023-05-03T09:09:57.669Z,1.00
2023-05-03T09:12:40.564Z,1.00
2023-05-03T09:15:08.405Z,1.20
2023-05-03T09:17:35.668Z,1.20
2023-05-03T09:20:03.521Z,1.20
2023-05-03T09:22:31.921Z,1.00
2023-05-03T09:25:00.446Z,0.90
2023-05-03T09:27:27.532Z,1.20
2023-05-03T09:29:54.389Z,1.20
2023-05-03T09:32:22.376Z,1.10
2023-05-03T09:34:49.360Z,0.90
2023-05-03T09:37:16.258Z,1.30
2023-05-03T09:39:45.049Z,1.10
2023-05-03T09:42:15.898Z,1.00
2023-05-03T09:44:43.777Z,1.30
2023-05-03T09:49:37.827Z,1.10
2023-05-03T09:52:06.038Z,1.50
2023-05-03T09:54:34.861Z,1.20
2023-05-03T09:57:04.190Z,1.10
2023-05-03T09:59:35.663Z,1.20
2023-05-03T10:02:04.292Z,0.90
2023-05-03T10:04:39.287Z,1.10
2023-05-03T10:07:10.647Z,1.00
2023-05-03T10:09:39.744Z,1.00
2023-05-03T10:14:42.881Z,1.10
2023-05-03T10:17:35.379Z,1.30
2023-05-03T10:20:20.821Z,1.40
2023-05-03T10:23:05.911Z,1.50
2023-05-03T10:25:34.901Z,1.10
2023-05-03T10:28:05.684Z,1.20
2023-05-03T10:30:37.214Z,1.30
2023-05-03T10:33:13.210Z,1.50
2023-05-03T10:35:41.569Z,1.10
2023-05-03T10:38:14.573Z,1.10
2023-05-03T10:40:42.761Z,1.40
2023-05-03T10:43:31.491Z,1.50
2023-05-03T10:46:05.697Z,1.60
2023-05-03T10:48:33.662Z,1.40
2023-05-03T10:51:32.497Z,1.70
2023-05-03T10:53:59.342Z,1.30
2023-05-03T10:56:26.289Z,1.40
2023-05-03T10:58:58.186Z,1.40
2023-05-03T11:01:25.413Z,1.50
2023-05-03T11:03:52.908Z,1.50
2023-05-03T11:06:33.954Z,1.10
2023-05-03T11:09:06.273Z,1.20
2023-05-03T11:11:38.774Z,1.30
2023-05-03T11:14:06.099Z,1.20
2023-05-03T11:16:36.089Z,1.10
2023-05-03T11:19:03.406Z,1.20
2023-05-03T11:21:30.903Z,1.30
2023-05-03T11:23:58.398Z,1.10
2023-05-03T11:26:25.652Z,1.00
2023-05-03T11:28:53.433Z,1.30
2023-05-03T11:31:23.688Z,1.10
2023-05-03T11:33:51.267Z,1.50
2023-05-03T11:36:18.134Z,1.10
2023-05-03T11:38:45.248Z,1.20
2023-05-03T11:41:21.184Z,1.40
2023-05-03T11:43:55.017Z,1.30
2023-05-03T11:46:29.009Z,1.00
2023-05-03T11:48:56.346Z,1.40
2023-05-03T11:51:23.453Z,1.30
2023-05-03T11:53:51.150Z,1.40
2023-05-03T11:56:19.775Z,1.20
2023-05-03T11:58:55.660Z,1.00
2023-05-03T12:01:26.951Z,1.20
2023-05-03T12:03:58.536Z,0.90
2023-05-03T12:06:27.680Z,1.30
2023-05-03T12:08:56.058Z,1.20
2023-05-03T12:11:25.767Z,1.00
2023-05-03T12:14:00.461Z,1.10
2023-05-03T12:16:28.066Z,1.20
2023-05-03T12:19:03.442Z,1.00
2023-05-03T12:21:59.394Z,1.30
2023-05-03T12:24:34.898Z,1.10
2023-05-03T12:27:03.232Z,1.00
2023-05-03T12:29:32.965Z,1.20
2023-05-03T12:32:02.650Z,1.10
2023-05-03T12:34:34.843Z,1.20
2023-05-03T12:37:06.072Z,1.20
2023-05-03T12:39:34.068Z,1.00
2023-05-03T12:42:07.146Z,1.00
2023-05-03T12:44:36.201Z,1.40
2023-05-03T12:47:03.571Z,1.00
2023-05-03T12:49:31.521Z,1.10
2023-05-03T12:52:21.935Z,1.30
2023-05-03T12:54:49.085Z,1.00
2023-05-03T12:57:17.493Z,1.30
2023-05-03T12:59:53.176Z,0.90
2023-05-03T13:04:58.807Z,1.00
2023-05-03T13:07:29.630Z,1.10
2023-05-03T13:12:27.855Z,1.10
2023-05-03T13:14:55.281Z,1.40
2023-05-03T13:17:22.140Z,1.20
2023-05-03T13:19:49.490Z,1.10
2023-05-03T13:22:16.712Z,1.20
2023-05-03T13:24:44.407Z,1.10
2023-05-03T13:27:11.415Z,0.90
2023-05-03T13:29:38.858Z,1.10
2023-05-03T13:32:05.935Z,1.00
2023-05-03T13:34:33.518Z,1.20
2023-05-03T13:37:05.968Z,1.00
2023-05-03T13:39:32.890Z,1.10
2023-05-03T13:42:00.169Z,1.30
2023-05-03T13:44:27.202Z,1.10
2023-05-03T13:46:55.089Z,0.90
2023-05-03T13:49:22.054Z,1.20
2023-05-03T13:51:49.123Z,1.10
2023-05-03T13:54:16.293Z,1.10
2023-05-03T13:56:43.463Z,1.00
2023-05-03T13:59:12.031Z,1.00
2023-05-03T14:01:39.164Z,1.00
2023-05-03T14:04:06.371Z,1.50
2023-05-03T14:06:33.929Z,1.20
2023-05-03T14:11:29.870Z,1.20
2023-05-03T14:13:58.492Z,1.10
2023-05-03T14:18:56.361Z,1.50
2023-05-03T14:21:23.109Z,0.90
2023-05-03T14:23:50.562Z,1.00
2023-05-03T14:26:17.694Z,1.20
2023-05-03T14:28:44.788Z,1.00
2023-05-03T14:31:12.630Z,1.30
2023-05-03T14:36:07.921Z,1.10
2023-05-03T14:38:36.658Z,1.10
2023-05-03T14:41:03.831Z,1.10
2023-05-03T14:43:31.317Z,0.90
2023-05-03T14:45:58.225Z,1.20
2023-05-03T14:48:25.640Z,1.20
2023-05-03T14:50:53.750Z,1.50
2023-05-03T14:53:21.359Z,1.00
2023-05-03T14:55:48.236Z,1.10
2023-05-03T14:58:15.847Z,1.10
2023-05-03T15:00:43.666Z,1.00
2023-05-03T15:05:36.838Z,1.10
2023-05-03T15:08:04.284Z,1.20
2023-05-03T15:10:31.406Z,1.20
2023-05-03T15:12:58.578Z,1.30
2023-05-03T15:15:25.812Z,1.30
2023-05-03T15:17:52.985Z,1.80
2023-05-03T15:20:20.740Z,0.90
2023-05-03T15:25:17.467Z,0.90
2023-05-03T15:27:44.544Z,1.10
2023-05-03T15:30:12.399Z,1.10
2023-05-03T15:32:39.532Z,0.90
2023-05-03T15:35:07.252Z,1.10
2023-05-03T15:37:38.204Z,1.00
2023-05-03T15:40:06.312Z,1.10
2023-05-03T15:42:33.776Z,0.90
2023-05-03T15:45:01.032Z,1.10
2023-05-03T15:47:28.181Z,0.90
2023-05-03T15:49:57.661Z,1.00
2023-05-03T15:52:25.050Z,0.80
2023-05-03T15:54:52.097Z,0.90
2023-05-03T15:57:19.347Z,0.90
2023-05-03T15:59:46.651Z,1.00
2023-05-03T16:02:13.972Z,0.80
2023-05-03T16:04:41.267Z,1.00
2023-05-03T16:07:08.932Z,0.70
2023-05-03T16:09:36.906Z,1.00
2023-05-03T16:12:04.437Z,0.70
2023-05-03T16:14:31.568Z,1.40
2023-05-03T16:17:00.387Z,1.40
2023-05-03T16:19:27.563Z,2.00
2023-05-03T16:21:54.668Z,2.10
2023-05-03T16:24:21.742Z,2.20
2023-05-03T16:26:49.429Z,1.90
2023-05-03T16:29:17.604Z,2.10
2023-05-03T16:31:46.610Z,1.70
2023-05-03T16:34:14.383Z,1.80
2023-05-03T16:36:45.388Z,2.30
2023-05-03T16:39:12.798Z,2.00
2023-05-03T16:41:40.686Z,1.90
2023-05-03T16:44:08.728Z,1.80
2023-05-03T16:46:36.793Z,1.30
2023-05-03T16:49:04.754Z,2.00
2023-05-03T16:51:32.546Z,1.80
2023-05-03T16:54:01.647Z,2.10
2023-05-03T16:56:30.953Z,1.90
2023-05-03T16:58:59.326Z,1.90
2023-05-03T17:01:26.550Z,1.70
2023-05-03T17:03:53.778Z,2.20
2023-05-03T17:06:21.174Z,1.50
2023-05-03T17:08:48.241Z,1.70
2023-05-03T17:11:16.356Z,1.40
2023-05-03T17:13:43.781Z,1.60
2023-05-03T17:16:15.274Z,1.80
2023-05-03T17:18:42.941Z,1.40
2023-05-03T17:21:10.996Z,1.60
2023-05-03T17:23:39.598Z,1.60
2023-05-03T17:26:11.296Z,1.50
2023-05-03T17:28:38.653Z,1.60
2023-05-03T17:31:09.331Z,1.70
2023-05-03T17:33:36.595Z,1.50
2023-05-03T17:36:07.003Z,1.70
2023-05-03T17:38:34.237Z,1.70
2023-05-03T17:41:08.747Z,1.40
2023-05-03T17:43:36.793Z,1.30
2023-05-03T17:46:11.785Z,1.40
2023-05-03T17:48:40.843Z,1.30
2023-05-03T17:51:08.050Z,1.50
2023-05-03T17:53:35.297Z,1.50
2023-05-03T17:56:02.637Z,1.70
2023-05-03T17:58:29.761Z,1.50
2023-05-03T18:00:57.786Z,1.90
2023-05-03T18:03:26.042Z,1.50
2023-05-03T18:05:53.251Z,1.70
2023-05-03T18:08:20.885Z,2.10
2023-05-03T18:13:15.625Z,2.30
2023-05-03T18:15:44.035Z,2.10
2023-05-03T18:18:11.689Z,2.30
2023-05-03T18:20:39.637Z,2.30
2023-05-03T18:23:06.854Z,2.30
2023-05-03T18:25:34.367Z,1.90
2023-05-03T18:28:02.220Z,1.80
2023-05-03T18:32:56.915Z,2.00
2023-05-03T18:35:24.102Z,1.70
2023-05-03T18:37:53.310Z,1.60
2023-05-03T18:40:20.444Z,1.40
2023-05-03T18:42:47.591Z,1.30
2023-05-03T18:45:15.455Z,1.60
2023-05-03T18:50:10.383Z,1.50
2023-05-03T18:52:37.995Z,1.90
2023-05-03T18:55:08.849Z,1.90
2023-05-03T18:57:35.915Z,2.10
2023-05-03T19:00:06.643Z,2.80
2023-05-03T19:02:33.949Z,2.40
2023-05-03T19:05:01.462Z,2.70
2023-05-03T19:07:28.717Z,2.90
2023-05-03T19:09:56.579Z,2.80
2023-05-03T19:12:23.850Z,2.70
2023-05-03T19:14:51.052Z,2.60
2023-05-03T19:17:18.405Z,2.40
2023-05-03T19:19:45.762Z,2.70
2023-05-03T19:22:13.139Z,2.50
2023-05-03T19:24:43.948Z,2.50
2023-05-03T19:27:11.983Z,3.00
2023-05-03T19:29:39.210Z,2.70
2023-05-03T19:32:06.394Z,2.70
2023-05-03T19:34:36.536Z,2.60
2023-05-03T19:37:03.782Z,2.50
2023-05-03T19:39:33.282Z,3.10
2023-05-03T19:42:00.526Z,2.50
2023-05-03T19:44:30.999Z,2.50
2023-05-03T19:46:58.306Z,2.50
2023-05-03T19:49:25.900Z,2.30
2023-05-03T19:54:21.452Z,2.80
2023-05-03T19:56:49.039Z,2.70
2023-05-03T19:59:16.421Z,2.50
2023-05-03T20:01:45.361Z,2.80
2023-05-03T20:04:12.704Z,2.50
2023-05-03T20:06:39.874Z,2.80
2023-05-03T20:09:07.087Z,2.80
2023-05-03T20:11:34.254Z,2.70
2023-05-03T20:14:01.440Z,2.80
2023-05-03T20:16:32.931Z,2.60
2023-05-03T20:19:00.196Z,2.60
2023-05-03T20:21:27.652Z,2.40
2023-05-03T20:23:54.735Z,2.10
2023-05-03T20:26:22.115Z,3.10
2023-05-03T20:28:49.572Z,2.90
2023-05-03T20:31:17.625Z,3.00
2023-05-03T20:36:13.539Z,2.50
2023-05-03T20:38:40.842Z,2.40
2023-05-03T20:41:08.097Z,2.70
2023-05-03T20:43:35.223Z,2.50
2023-05-03T20:46:02.386Z,2.70
2023-05-03T20:48:29.645Z,2.20
2023-05-03T20:50:59.109Z,2.60
2023-05-03T20:53:26.394Z,2.40
2023-05-03T20:55:57.109Z,2.70
2023-05-03T20:58:24.480Z,2.20
2023-05-03T21:00:53.374Z,2.60
2023-05-03T21:03:23.784Z,2.50
2023-05-03T21:05:53.158Z,2.00
2023-05-03T21:08:20.242Z,2.10
2023-05-03T21:10:47.437Z,2.20
2023-05-03T21:13:14.882Z,2.10
2023-05-03T21:15:42.802Z,1.90
2023-05-03T21:18:10.338Z,1.90
2023-05-03T21:20:37.820Z,1.60
2023-05-03T21:23:05.251Z,2.50
2023-05-03T21:25:32.354Z,2.10
2023-05-03T21:27:59.524Z,2.30
2023-05-03T21:30:27.955Z,2.10
2023-05-03T21:32:55.002Z,2.00
2023-05-03T21:35:22.198Z,1.90
2023-05-03T21:37:50.079Z,1.80
2023-05-03T21:40:17.649Z,2.50
2023-05-03T21:42:44.967Z,1.80
2023-05-03T21:45:12.607Z,1.80
2023-05-03T21:47:39.777Z,2.00
2023-05-03T21:50:08.056Z,2.00
2023-05-03T21:52:36.633Z,1.90
2023-05-03T21:55:04.242Z,2.00
2023-05-03T21:57:33.016Z,2.10
2023-05-03T22:00:00.304Z,2.10
2023-05-03T22:02:27.739Z,2.10
2023-05-03T22:04:55.178Z,2.20
2023-05-03T22:07:22.686Z,2.30
2023-05-03T22:09:49.828Z,1.90
2023-05-03T22:14:47.629Z,2.10
2023-05-03T22:17:14.777Z,1.90
2023-05-03T22:19:42.395Z,2.20
2023-05-03T22:22:09.542Z,1.80
2023-05-03T22:24:36.575Z,2.10
2023-05-03T22:27:03.975Z,2.30
2023-05-03T22:29:31.226Z,2.20
2023-05-03T22:31:59.350Z,1.80
2023-05-03T22:34:26.870Z,2.30
2023-05-03T22:36:54.142Z,2.30
2023-05-03T22:39:21.198Z,2.00
2023-05-03T22:41:48.477Z,2.00
2023-05-03T22:44:15.935Z,1.90
2023-05-03T22:46:43.017Z,2.10
2023-05-03T22:49:10.112Z,2.20
2023-05-03T22:51:37.340Z,2.10
2023-05-03T22:59:25.374Z,2.10
2023-05-03T23:01:52.503Z,2.30
2023-05-03T23:04:19.584Z,2.20
2023-05-03T23:06:46.977Z,2.10
2023-05-03T23:09:14.032Z,2.10
2023-05-03T23:11:41.365Z,2.70
2023-05-03T23:14:08.595Z,2.40
2023-05-03T23:16:35.666Z,2.20
2023-05-03T23:19:03.896Z,2.40
2023-05-03T23:21:32.502Z,2.00
2023-05-03T23:23:59.711Z,2.30
2023-05-03T23:26:28.185Z,2.20
2023-05-03T23:28:55.866Z,2.00
2023-05-03T23:31:23.640Z,1.90
2023-05-03T23:33:51.279Z,2.00
2023-05-03T23:36:18.727Z,2.20
2023-05-03T23:38:46.159Z,2.10
2023-05-03T23:41:13.310Z,1.90
2023-05-03T23:43:40.381Z,2.30
2023-05-03T23:46:07.709Z,2.20
2023-05-03T23:48:35.125Z,2.30
2023-05-03T23:51:02.252Z,2.70
2023-05-03T23:53:29.406Z,2.20
2023-05-03T23:55:56.558Z,2.40
2023-05-03T23:58:23.887Z,2.00
